createdAt,value
2018-11-01T00:01:34.294Z,8.70
2018-11-01T00:04:03.586Z,8.70
2018-11-01T00:06:31.879Z,8.70
2018-11-01T00:09:00.925Z,8.70
2018-11-01T00:11:29.489Z,8.70
2018-11-01T00:13:57.762Z,8.70
2018-11-01T00:16:26.018Z,8.70
2018-11-01T00:18:54.269Z,8.70
2018-11-01T00:21:22.525Z,8.60
2018-11-01T00:23:50.800Z,8.60
2018-11-01T00:26:19.078Z,8.60
2018-11-01T00:28:47.378Z,8.70
2018-11-01T00:31:15.648Z,8.60
2018-11-01T00:36:35.201Z,8.60
2018-11-01T00:39:04.588Z,8.60
2018-11-01T00:41:32.812Z,8.60
2018-11-01T00:44:02.009Z,8.60
2018-11-01T00:46:30.245Z,8.60
2018-11-01T00:48:58.541Z,8.60
2018-11-01T00:51:26.788Z,8.60
2018-11-01T00:53:55.024Z,8.60
2018-11-01T00:56:23.273Z,8.60
2018-11-01T00:58:51.556Z,8.60
2018-11-01T01:01:19.761Z,8.60
2018-11-01T01:03:48.017Z,8.60
2018-11-01T01:06:16.264Z,8.60
2018-11-01T01:08:44.517Z,8.50
2018-11-01T01:11:12.750Z,8.50
2018-11-01T01:13:41.007Z,8.50
2018-11-01T01:16:09.248Z,8.50
2018-11-01T01:18:37.485Z,8.50
2018-11-01T01:21:06.296Z,8.50
2018-11-01T01:23:34.540Z,8.50
2018-11-01T01:26:02.788Z,8.50
2018-11-01T01:28:31.013Z,8.50
2018-11-01T01:30:59.236Z,8.50
2018-11-01T01:33:27.493Z,8.50
2018-11-01T01:35:55.717Z,8.50
2018-11-01T01:38:23.961Z,8.50
2018-11-01T01:40:52.212Z,8.50
2018-11-01T01:43:20.480Z,8.50
2018-11-01T01:45:48.715Z,8.50
2018-11-01T01:48:18.357Z,8.50
2018-11-01T01:50:46.648Z,8.50
2018-11-01T01:53:15.009Z,8.50
2018-11-01T01:55:43.225Z,8.40
2018-11-01T01:58:11.434Z,8.40
2018-11-01T02:00:39.682Z,8.40
2018-11-01T02:03:07.897Z,8.40
2018-11-01T02:05:36.278Z,8.40
2018-11-01T02:08:04.502Z,8.40
2018-11-01T02:10:32.740Z,8.40
2018-11-01T02:13:00.965Z,8.40
2018-11-01T02:15:29.229Z,8.30
2018-11-01T02:17:57.452Z,8.30
2018-11-01T02:20:25.697Z,8.30
2018-11-01T02:22:53.948Z,8.30
2018-11-01T02:25:22.200Z,8.30
2018-11-01T02:27:55.949Z,8.30
2018-11-01T02:30:24.227Z,8.30
2018-11-01T02:32:52.473Z,8.20
2018-11-01T02:35:20.731Z,8.20
2018-11-01T02:37:49.043Z,8.30
2018-11-01T02:40:17.508Z,8.20
2018-11-01T02:42:45.821Z,8.20
2018-11-01T02:45:14.714Z,8.20
2018-11-01T02:47:42.948Z,8.20
2018-11-01T02:50:12.086Z,8.20
2018-11-01T02:52:40.355Z,8.20
2018-11-01T02:55:09.265Z,8.20
2018-11-01T02:57:37.536Z,8.20
2018-11-01T03:00:07.976Z,8.20
2018-11-01T03:02:36.253Z,8.20
2018-11-01T03:05:05.154Z,8.20
2018-11-01T03:07:33.427Z,8.10
2018-11-01T03:10:01.697Z,8.10
2018-11-01T03:12:29.946Z,8.10
2018-11-01T03:14:58.214Z,8.10
2018-11-01T03:17:26.469Z,8.10
2018-11-01T03:19:54.695Z,8.10
2018-11-01T03:22:22.933Z,8.10
2018-11-01T03:24:51.157Z,8.10
2018-11-01T03:27:19.485Z,8.00
2018-11-01T03:29:47.736Z,8.10
2018-11-01T03:32:15.967Z,8.00
2018-11-01T03:34:44.226Z,8.10
2018-11-01T03:37:12.464Z,8.00
2018-11-01T03:39:40.729Z,8.00
2018-11-01T03:42:09.008Z,8.00
2018-11-01T03:44:37.223Z,8.00
2018-11-01T03:47:05.593Z,8.00
2018-11-01T03:49:33.873Z,8.00
2018-11-01T03:52:02.215Z,8.00
2018-11-01T03:54:30.374Z,8.00
2018-11-01T03:56:58.590Z,8.00
2018-11-01T03:59:26.925Z,7.90
2018-11-01T04:01:55.173Z,8.00
2018-11-01T04:04:23.422Z,7.90
2018-11-01T04:09:21.277Z,7.90
2018-11-01T04:11:49.514Z,7.90
2018-11-01T04:14:17.805Z,7.90
2018-11-01T04:16:46.077Z,7.90
2018-11-01T04:19:14.311Z,7.90
2018-11-01T04:21:42.525Z,7.90
2018-11-01T04:24:10.768Z,7.90
2018-11-01T04:26:39.017Z,7.90
2018-11-01T04:29:07.256Z,7.90
2018-11-01T04:31:35.524Z,7.90
2018-11-01T04:34:03.756Z,7.90
2018-11-01T04:36:32.022Z,7.80
2018-11-01T04:39:00.289Z,7.80
2018-11-01T04:41:28.516Z,7.90
2018-11-01T04:43:56.741Z,7.90
2018-11-01T04:46:25.023Z,7.80
2018-11-01T04:48:53.189Z,7.80
2018-11-01T04:51:21.460Z,7.80
2018-11-01T04:53:49.685Z,7.80
2018-11-01T04:56:17.922Z,7.80
2018-11-01T04:58:46.128Z,7.80
2018-11-01T05:01:16.091Z,7.80
2018-11-01T05:03:44.501Z,7.80
2018-11-01T05:06:12.690Z,7.80
2018-11-01T05:08:40.917Z,7.80
2018-11-01T05:11:09.198Z,7.80
2018-11-01T05:13:37.422Z,7.80
2018-11-01T05:16:06.133Z,7.80
2018-11-01T05:18:34.396Z,7.80
2018-11-01T05:21:02.614Z,7.80
2018-11-01T05:23:30.864Z,7.80
2018-11-01T05:25:59.226Z,7.80
2018-11-01T05:28:27.368Z,7.80
2018-11-01T05:30:55.622Z,7.80
2018-11-01T05:33:23.880Z,7.80
2018-11-01T05:35:52.082Z,7.70
2018-11-01T05:38:20.430Z,7.80
2018-11-01T05:40:48.711Z,7.80
2018-11-01T05:43:22.552Z,7.80
2018-11-01T05:45:50.793Z,7.80
2018-11-01T05:48:19.052Z,7.80
2018-11-01T05:50:47.316Z,7.80
2018-11-01T05:53:15.588Z,7.80
2018-11-01T05:55:43.808Z,7.80
2018-11-01T05:58:12.031Z,7.80
2018-11-01T06:00:40.276Z,7.80
2018-11-01T06:03:08.495Z,7.80
2018-11-01T06:05:38.021Z,7.80
2018-11-01T06:08:08.413Z,7.80
2018-11-01T06:10:36.637Z,7.80
2018-11-01T06:13:04.892Z,7.80
2018-11-01T06:15:33.153Z,7.80
2018-11-01T06:18:01.385Z,7.80
2018-11-01T06:20:29.717Z,7.80
2018-11-01T06:22:57.953Z,7.90
2018-11-01T06:25:26.182Z,7.90
2018-11-01T06:27:54.451Z,7.80
2018-11-01T06:30:22.801Z,7.80
2018-11-01T06:32:50.974Z,7.80
2018-11-01T06:35:25.633Z,7.80
2018-11-01T06:37:53.892Z,7.80
2018-11-01T06:40:22.183Z,7.80
2018-11-01T06:42:50.475Z,7.90
2018-11-01T06:45:19.171Z,7.80
2018-11-01T06:47:47.616Z,7.80
2018-11-01T06:50:15.876Z,7.80
2018-11-01T06:52:44.202Z,7.80
2018-11-01T06:55:12.792Z,7.80
2018-11-01T06:57:41.067Z,7.90
2018-11-01T07:00:11.667Z,7.80
2018-11-01T07:02:40.313Z,7.80
2018-11-01T07:05:08.640Z,7.90
2018-11-01T07:07:37.073Z,7.80
2018-11-01T07:10:06.828Z,7.90
2018-11-01T07:12:35.113Z,7.90
2018-11-01T07:15:03.429Z,7.90
2018-11-01T07:17:31.846Z,7.90
2018-11-01T07:19:59.954Z,7.90
2018-11-01T07:22:28.257Z,7.90
2018-11-01T07:24:56.518Z,7.90
2018-11-01T07:27:24.753Z,7.90
2018-11-01T07:29:52.988Z,7.90
2018-11-01T07:32:21.262Z,7.90
2018-11-01T07:34:49.527Z,7.90
2018-11-01T07:37:17.785Z,7.90
2018-11-01T07:39:46.115Z,7.90
2018-11-01T07:42:14.288Z,7.80
2018-11-01T07:44:42.540Z,7.80
2018-11-01T07:47:10.761Z,7.90
2018-11-01T07:49:38.972Z,7.90
2018-11-01T07:52:07.194Z,7.90
2018-11-01T07:54:35.452Z,7.90
2018-11-01T07:57:03.743Z,7.90
2018-11-01T07:59:32.039Z,7.90
2018-11-01T08:02:00.277Z,7.90
2018-11-01T08:04:28.495Z,7.90
2018-11-01T08:06:56.737Z,8.00
2018-11-01T08:09:24.965Z,8.00
2018-11-01T08:11:53.204Z,8.00
2018-11-01T08:14:21.457Z,8.00
2018-11-01T08:16:49.708Z,8.00
2018-11-01T08:19:17.932Z,8.00
2018-11-01T08:21:46.229Z,8.00
2018-11-01T08:24:14.495Z,8.10
2018-11-01T08:26:42.741Z,8.10
2018-11-01T08:29:11.013Z,8.10
2018-11-01T08:31:39.233Z,8.10
2018-11-01T08:34:07.472Z,8.10
2018-11-01T08:36:35.677Z,8.10
2018-11-01T08:39:05.455Z,8.10
2018-11-01T08:41:33.843Z,8.10
2018-11-01T08:44:02.151Z,8.10
2018-11-01T08:46:30.380Z,8.20
2018-11-01T08:48:58.627Z,8.20
2018-11-01T08:51:33.791Z,8.20
2018-11-01T08:54:02.077Z,8.20
2018-11-01T08:56:30.434Z,8.20
2018-11-01T08:58:58.675Z,8.20
2018-11-01T09:01:26.916Z,8.30
2018-11-01T09:03:55.189Z,8.30
2018-11-01T09:06:23.417Z,8.20
2018-11-01T09:08:53.095Z,8.20
2018-11-01T09:11:21.375Z,8.30
2018-11-01T09:13:49.612Z,8.30
2018-11-01T09:16:17.860Z,8.30
2018-11-01T09:18:46.125Z,8.30
2018-11-01T09:21:14.372Z,8.30
2018-11-01T09:23:42.648Z,8.30
2018-11-01T09:26:10.904Z,8.30
2018-11-01T09:28:39.126Z,8.30
2018-11-01T09:31:07.407Z,8.30
2018-11-01T09:33:35.660Z,8.40
2018-11-01T09:36:03.939Z,8.40
2018-11-01T09:38:32.213Z,8.40
2018-11-01T09:41:00.504Z,8.40
2018-11-01T09:43:28.704Z,8.40
2018-11-01T09:45:57.008Z,8.50
2018-11-01T09:48:25.188Z,8.50
2018-11-01T09:50:53.465Z,8.50
2018-11-01T09:53:21.820Z,8.50
2018-11-01T09:55:50.239Z,8.50
2018-11-01T09:58:18.377Z,8.60
2018-11-01T10:00:46.625Z,8.60
2018-11-01T10:03:14.870Z,8.70
2018-11-01T10:05:43.090Z,8.70
2018-11-01T10:08:11.328Z,8.70
2018-11-01T10:10:39.633Z,8.70
2018-11-01T10:13:07.844Z,8.70
2018-11-01T10:15:36.241Z,8.70
2018-11-01T10:18:04.801Z,8.80
2018-11-01T10:20:32.627Z,8.70
2018-11-01T10:23:00.955Z,8.90
2018-11-01T10:25:29.259Z,8.90
2018-11-01T10:27:57.377Z,8.90
2018-11-01T10:30:25.631Z,8.90
2018-11-01T10:32:53.873Z,9.00
2018-11-01T10:35:22.268Z,9.10
2018-11-01T10:37:50.505Z,9.20
2018-11-01T10:40:20.009Z,9.20
2018-11-01T10:42:48.290Z,9.30
2018-11-01T10:45:16.521Z,9.40
2018-11-01T10:47:44.828Z,9.40
2018-11-01T10:50:15.301Z,9.60
2018-11-01T10:52:43.524Z,9.60
2018-11-01T10:55:12.568Z,9.80
2018-11-01T10:57:40.840Z,9.80
2018-11-01T11:00:15.680Z,9.90
2018-11-01T11:02:46.129Z,10.10
2018-11-01T11:05:15.038Z,10.20
2018-11-01T11:07:43.325Z,10.30
2018-11-01T11:10:11.812Z,10.30
2018-11-01T11:12:40.054Z,10.40
2018-11-01T11:15:08.884Z,10.50
2018-11-01T11:17:37.291Z,10.50
2018-11-01T11:20:06.360Z,10.60
2018-11-01T11:22:34.829Z,10.60
2018-11-01T11:25:03.156Z,10.70
2018-11-01T11:27:31.418Z,10.70
2018-11-01T11:30:00.168Z,10.90
2018-11-01T11:32:28.309Z,10.90
2018-11-01T11:34:56.564Z,11.00
2018-11-01T11:37:24.880Z,11.10
2018-11-01T11:39:53.116Z,11.20
2018-11-01T11:42:21.384Z,11.30
2018-11-01T11:44:49.632Z,11.40
2018-11-01T11:47:17.897Z,11.50
2018-11-01T11:49:46.130Z,11.60
2018-11-01T11:52:14.352Z,11.70
2018-11-01T11:54:42.909Z,11.80
2018-11-01T11:57:11.269Z,11.80
2018-11-01T11:59:39.385Z,11.90
2018-11-01T12:02:07.651Z,12.00
2018-11-01T12:04:35.878Z,12.10
2018-11-01T12:07:04.125Z,12.20
2018-11-01T12:09:32.341Z,12.30
2018-11-01T12:12:00.613Z,12.30
2018-11-01T12:14:28.829Z,12.30
2018-11-01T12:16:57.084Z,12.40
2018-11-01T12:19:25.375Z,12.50
2018-11-01T12:21:53.610Z,12.60
2018-11-01T12:24:21.897Z,12.70
2018-11-01T12:26:50.131Z,12.70
2018-11-01T12:29:18.384Z,12.70
2018-11-01T12:31:46.681Z,12.80
2018-11-01T12:34:14.898Z,12.80
2018-11-01T12:36:43.144Z,12.80
2018-11-01T12:39:11.385Z,12.80
2018-11-01T12:41:39.662Z,12.80
2018-11-01T12:44:07.990Z,12.90
2018-11-01T12:46:36.308Z,12.80
2018-11-01T12:49:04.601Z,12.80
2018-11-01T12:51:32.830Z,12.80
2018-11-01T12:54:01.059Z,12.80
2018-11-01T12:56:29.371Z,12.80
2018-11-01T12:58:57.574Z,12.80
2018-11-01T13:01:25.837Z,12.90
2018-11-01T13:03:54.073Z,12.90
2018-11-01T13:06:22.328Z,13.00
2018-11-01T13:08:50.549Z,13.00
2018-11-01T13:11:18.801Z,13.10
2018-11-01T13:13:47.109Z,13.20
2018-11-01T13:16:15.360Z,13.20
2018-11-01T13:18:43.632Z,13.30
2018-11-01T13:21:11.921Z,13.30
2018-11-01T13:23:40.161Z,13.40
2018-11-01T13:26:08.388Z,13.40
2018-11-01T13:28:36.641Z,13.40
2018-11-01T13:31:05.592Z,13.50
2018-11-01T13:33:33.828Z,13.50
2018-11-01T13:36:02.084Z,13.60
2018-11-01T13:38:30.349Z,13.60
2018-11-01T13:40:59.035Z,13.70
2018-11-01T13:43:26.876Z,13.70
2018-11-01T13:45:55.113Z,13.70
2018-11-01T13:48:23.494Z,13.70
2018-11-01T13:50:52.234Z,13.80
2018-11-01T13:53:20.457Z,13.80
2018-11-01T13:55:48.760Z,13.80
2018-11-01T13:58:17.002Z,13.90
2018-11-01T14:00:45.216Z,13.90
2018-11-01T14:03:13.475Z,13.90
2018-11-01T14:05:41.828Z,14.00
2018-11-01T14:08:09.992Z,14.00
2018-11-01T14:10:38.238Z,14.00
2018-11-01T14:13:06.504Z,14.00
2018-11-01T14:15:34.781Z,14.10
2018-11-01T14:18:02.947Z,14.10
2018-11-01T14:20:31.224Z,14.10
2018-11-01T14:22:59.497Z,14.10
2018-11-01T14:25:27.793Z,14.10
2018-11-01T14:27:55.988Z,14.10
2018-11-01T14:30:24.230Z,14.10
2018-11-01T14:32:52.480Z,14.20
2018-11-01T14:35:20.700Z,14.20
2018-11-01T14:37:49.036Z,14.20
2018-11-01T14:40:17.164Z,14.10
2018-11-01T14:42:45.407Z,14.10
2018-11-01T14:45:13.640Z,14.10
2018-11-01T14:47:42.001Z,14.10
2018-11-01T14:50:10.997Z,14.10
2018-11-01T14:52:39.932Z,14.10
2018-11-01T14:55:09.491Z,14.00
2018-11-01T14:57:37.784Z,14.00
2018-11-01T15:00:05.638Z,14.00
2018-11-01T15:02:33.913Z,14.00
2018-11-01T15:05:02.158Z,13.90
2018-11-01T15:07:30.382Z,13.90
2018-11-01T15:09:58.609Z,13.90
2018-11-01T15:12:26.844Z,13.80
2018-11-01T15:14:55.132Z,13.80
2018-11-01T15:17:23.452Z,13.70
2018-11-01T15:19:51.680Z,13.70
2018-11-01T15:22:19.897Z,13.60
2018-11-01T15:24:48.175Z,13.60
2018-11-01T15:27:16.398Z,13.60
2018-11-01T15:29:44.634Z,13.60
2018-11-01T15:32:18.286Z,13.50
2018-11-01T15:34:46.518Z,13.50
2018-11-01T15:37:14.827Z,13.50
2018-11-01T15:39:43.095Z,13.40
2018-11-01T15:42:11.289Z,13.40
2018-11-01T15:44:39.547Z,13.30
2018-11-01T15:47:07.770Z,13.30
2018-11-01T15:49:36.029Z,13.30
2018-11-01T15:52:04.458Z,13.30
2018-11-01T15:54:32.692Z,13.30
2018-11-01T15:57:00.936Z,13.20
2018-11-01T15:59:29.185Z,13.20
2018-11-01T16:01:57.393Z,13.20
2018-11-01T16:04:25.676Z,13.10
2018-11-01T16:06:53.924Z,13.10
2018-11-01T16:09:22.233Z,13.10
2018-11-01T16:11:50.510Z,13.10
2018-11-01T16:14:18.914Z,13.00
2018-11-01T16:16:47.206Z,13.00
2018-11-01T16:19:15.636Z,13.00
2018-11-01T16:21:43.860Z,12.90
2018-11-01T16:24:12.105Z,12.90
2018-11-01T16:26:40.378Z,12.90
2018-11-01T16:29:08.805Z,12.80
2018-11-01T16:31:37.055Z,12.80
2018-11-01T16:34:05.802Z,12.80
2018-11-01T16:36:34.124Z,12.70
2018-11-01T16:39:02.301Z,12.70
2018-11-01T16:41:30.593Z,12.60
2018-11-01T16:43:58.820Z,12.60
2018-11-01T16:46:27.091Z,12.60
2018-11-01T16:48:55.365Z,12.50
2018-11-01T16:51:23.590Z,12.50
2018-11-01T16:53:51.831Z,12.50
2018-11-01T16:56:20.074Z,12.40
2018-11-01T16:58:48.308Z,12.40
2018-11-01T17:01:16.606Z,12.40
2018-11-01T17:03:44.849Z,12.30
2018-11-01T17:06:13.106Z,12.30
2018-11-01T17:08:41.443Z,12.30
2018-11-01T17:11:09.617Z,12.20
2018-11-01T17:13:37.834Z,12.20
2018-11-01T17:16:06.743Z,12.20
2018-11-01T17:18:34.981Z,12.20
2018-11-01T17:21:03.233Z,12.10
2018-11-01T17:23:31.580Z,12.10
2018-11-01T17:25:59.844Z,12.10
2018-11-01T17:28:28.107Z,12.00
2018-11-01T17:30:56.325Z,12.00
2018-11-01T17:33:24.573Z,12.00
2018-11-01T17:35:52.843Z,11.90
2018-11-01T17:38:21.120Z,11.90
2018-11-01T17:40:49.352Z,11.90
2018-11-01T17:43:17.609Z,11.90
2018-11-01T17:45:45.886Z,11.80
2018-11-01T17:48:14.110Z,11.80
2018-11-01T17:50:42.406Z,11.80
2018-11-01T17:53:10.666Z,11.80
2018-11-01T17:55:38.917Z,11.70
2018-11-01T17:58:07.153Z,11.70
2018-11-01T18:00:35.397Z,11.70
2018-11-01T18:03:03.669Z,11.70
2018-11-01T18:05:31.923Z,11.60
2018-11-01T18:08:00.154Z,11.60
2018-11-01T18:10:28.606Z,11.60
2018-11-01T18:12:57.034Z,11.60
2018-11-01T18:15:25.288Z,11.60
2018-11-01T18:17:53.546Z,11.50
2018-11-01T18:20:21.865Z,11.50
2018-11-01T18:22:50.157Z,11.50
2018-11-01T18:25:18.621Z,11.50
2018-11-01T18:27:46.862Z,11.40
2018-11-01T18:30:16.555Z,11.40
2018-11-01T18:32:45.276Z,11.40
2018-11-01T18:35:13.514Z,11.40
2018-11-01T18:37:42.436Z,11.40
2018-11-01T18:40:13.480Z,11.40
2018-11-01T18:42:41.956Z,11.40
2018-11-01T18:45:11.612Z,11.30
2018-11-01T18:47:39.932Z,11.30
2018-11-01T18:50:09.089Z,11.30
2018-11-01T18:52:37.336Z,11.30
2018-11-01T18:55:06.717Z,11.30
2018-11-01T18:57:34.982Z,11.30
2018-11-01T19:00:03.362Z,11.30
2018-11-01T19:02:31.665Z,11.30
2018-11-01T19:05:00.001Z,11.30
2018-11-01T19:07:28.332Z,11.30
2018-11-01T19:09:56.540Z,11.30
2018-11-01T19:12:24.880Z,11.20
2018-11-01T19:14:53.379Z,11.20
2018-11-01T19:17:21.956Z,11.20
2018-11-01T19:19:50.236Z,11.20
2018-11-01T19:22:18.519Z,11.20
2018-11-01T19:24:46.763Z,11.20
2018-11-01T19:27:15.463Z,11.10
2018-11-01T19:29:43.484Z,11.10
2018-11-01T19:32:11.801Z,11.10
2018-11-01T19:34:40.152Z,11.00
2018-11-01T19:37:08.713Z,11.00
2018-11-01T19:39:36.953Z,11.00
2018-11-01T19:42:06.302Z,11.00
2018-11-01T19:44:34.546Z,11.00
2018-11-01T19:47:02.828Z,11.00
2018-11-01T19:49:31.197Z,11.00
2018-11-01T19:51:59.381Z,11.00
2018-11-01T19:54:27.687Z,11.00
2018-11-01T19:56:55.898Z,11.00
2018-11-01T19:59:24.176Z,10.90
2018-11-01T20:01:52.440Z,10.90
2018-11-01T20:04:20.760Z,10.90
2018-11-01T20:06:48.912Z,10.90
2018-11-01T20:09:17.180Z,10.90
2018-11-01T20:11:45.462Z,10.90
2018-11-01T20:14:13.720Z,10.90
2018-11-01T20:16:41.998Z,10.90
2018-11-01T20:19:10.334Z,10.90
2018-11-01T20:21:38.551Z,10.90
2018-11-01T20:24:06.741Z,10.90
2018-11-01T20:26:35.023Z,10.80
2018-11-01T20:29:03.445Z,10.80
2018-11-01T20:31:31.730Z,10.80
2018-11-01T20:33:59.919Z,10.80
2018-11-01T20:36:28.177Z,10.80
2018-11-01T20:38:56.399Z,10.80
2018-11-01T20:41:24.624Z,10.70
2018-11-01T20:43:52.890Z,10.70
2018-11-01T20:46:27.874Z,10.80
2018-11-01T20:48:56.098Z,10.70
2018-11-01T20:51:24.335Z,10.70
2018-11-01T20:53:52.544Z,10.70
2018-11-01T20:56:20.796Z,10.70
2018-11-01T20:58:49.054Z,10.70
2018-11-01T21:01:17.281Z,10.70
2018-11-01T21:03:45.561Z,10.70
2018-11-01T21:06:13.795Z,10.70
2018-11-01T21:08:42.026Z,10.60
2018-11-01T21:11:10.374Z,10.60
2018-11-01T21:13:38.522Z,10.60
2018-11-01T21:16:06.808Z,10.60
2018-11-01T21:18:35.037Z,10.60
2018-11-01T21:21:03.304Z,10.60
2018-11-01T21:23:31.589Z,10.60
2018-11-01T21:25:59.817Z,10.60
2018-11-01T21:28:28.086Z,10.60
2018-11-01T21:30:56.301Z,10.60
2018-11-01T21:33:24.525Z,10.60
2018-11-01T21:35:52.895Z,10.60
2018-11-01T21:38:21.057Z,10.60
2018-11-01T21:40:49.300Z,10.60
2018-11-01T21:43:17.554Z,10.60
2018-11-01T21:45:45.777Z,10.60
2018-11-01T21:48:14.017Z,10.60
2018-11-01T21:50:42.332Z,10.50
2018-11-01T21:53:10.668Z,10.50
2018-11-01T21:55:38.829Z,10.50
2018-11-01T21:58:07.523Z,10.50
2018-11-01T22:00:35.804Z,10.50
2018-11-01T22:03:04.037Z,10.50
2018-11-01T22:05:32.250Z,10.50
2018-11-01T22:08:00.539Z,10.50
2018-11-01T22:10:28.814Z,10.50
2018-11-01T22:12:57.058Z,10.50
2018-11-01T22:15:25.296Z,10.50
2018-11-01T22:17:53.559Z,10.50
2018-11-01T22:20:21.818Z,10.50
2018-11-01T22:22:50.105Z,10.50
2018-11-01T22:25:18.346Z,10.40
2018-11-01T22:27:46.580Z,10.40
2018-11-01T22:30:14.821Z,10.40
2018-11-01T22:32:43.463Z,10.30
2018-11-01T22:35:11.845Z,10.30
2018-11-01T22:37:40.942Z,10.30
2018-11-01T22:40:09.242Z,10.30
2018-11-01T22:42:37.606Z,10.30
2018-11-01T22:45:06.995Z,10.30
2018-11-01T22:47:35.212Z,10.30
2018-11-01T22:50:03.489Z,10.30
2018-11-01T22:52:31.774Z,10.20
2018-11-01T22:55:00.001Z,10.30
2018-11-01T22:57:28.233Z,10.20
2018-11-01T22:59:56.505Z,10.30
2018-11-01T23:02:24.708Z,10.20
2018-11-01T23:04:52.968Z,10.20
2018-11-01T23:07:21.231Z,10.20
2018-11-01T23:09:49.733Z,10.20
2018-11-01T23:12:17.980Z,10.20
2018-11-01T23:14:46.240Z,10.20
2018-11-01T23:17:14.507Z,10.20
2018-11-01T23:19:42.752Z,10.20
2018-11-01T23:22:10.988Z,10.10
2018-11-01T23:24:39.241Z,10.10
2018-11-01T23:27:09.549Z,10.10
2018-11-01T23:29:37.800Z,10.10
2018-11-01T23:32:06.092Z,10.10
2018-11-01T23:34:34.365Z,10.10
2018-11-01T23:37:07.968Z,10.10
2018-11-01T23:39:41.705Z,10.10
2018-11-01T23:42:15.513Z,10.00
2018-11-01T23:44:49.242Z,10.00
2018-11-01T23:47:22.942Z,10.00
2018-11-01T23:50:01.089Z,10.00
2018-11-01T23:52:29.789Z,10.00
2018-11-01T23:54:58.024Z,10.00
2018-11-01T23:57:26.284Z,10.00
2018-11-01T23:59:54.509Z,10.00
